sensor_id;sensor_type;location;lat;lon;timestamp;P1;durP1;ratioP1;P2;durP2;ratioP2
22837;SDS011;11585;51.450;-0.240;2024-02-26T00:00:41;35.85;;;33.25;;
22837;SDS011;11585;51.450;-0.240;2024-02-26T00:03:06;36.00;;;33.40;;
22837;SDS011;11585;51.450;-0.240;2024-02-26T00:05:32;34.80;;;32.30;;
22837;SDS011;11585;51.450;-0.240;2024-02-26T00:07:58;35.30;;;32.70;;
22837;SDS011;11585;51.450;-0.240;2024-02-26T00:10:26;35.70;;;33.10;;
22837;SDS011;11585;51.450;-0.240;2024-02-26T00:12:54;35.45;;;32.85;;
22837;SDS011;11585;51.450;-0.240;2024-02-26T00:15:20;34.40;;;31.90;;
22837;SDS011;11585;51.450;-0.240;2024-02-26T00:17:46;34.03;;;31.52;;
22837;SDS011;11585;51.450;-0.240;2024-02-26T00:20:11;36.58;;;33.88;;
22837;SDS011;11585;51.450;-0.240;2024-02-26T00:22:38;35.90;;;33.20;;
22837;SDS011;11585;51.450;-0.240;2024-02-26T00:25:05;36.33;;;33.63;;
22837;SDS011;11585;51.450;-0.240;2024-02-26T00:27:31;36.45;;;33.75;;
22837;SDS011;11585;51.450;-0.240;2024-02-26T00:29:57;35.97;;;33.28;;
22837;SDS011;11585;51.450;-0.240;2024-02-26T00:32:23;36.05;;;33.35;;
22837;SDS011;11585;51.450;-0.240;2024-02-26T00:37:36;36.15;;;33.45;;
22837;SDS011;11585;51.450;-0.240;2024-02-26T00:40:02;35.33;;;32.72;;
22837;SDS011;11585;51.450;-0.240;2024-02-26T00:42:28;35.83;;;33.22;;
22837;SDS011;11585;51.450;-0.240;2024-02-26T00:44:56;35.55;;;32.95;;
22837;SDS011;11585;51.450;-0.240;2024-02-26T00:47:21;36.38;;;33.67;;
22837;SDS011;11585;51.450;-0.240;2024-02-26T00:49:50;35.20;;;32.60;;
22837;SDS011;11585;51.450;-0.240;2024-02-26T00:52:16;37.15;;;34.35;;
22837;SDS011;11585;51.450;-0.240;2024-02-26T00:54:41;36.35;;;33.65;;
22837;SDS011;11585;51.450;-0.240;2024-02-26T00:57:10;36.63;;;33.90;;
22837;SDS011;11585;51.450;-0.240;2024-02-26T01:02:02;36.55;;;33.83;;
22837;SDS011;11585;51.450;-0.240;2024-02-26T01:04:31;36.80;;;34.05;;
22837;SDS011;11585;51.450;-0.240;2024-02-26T01:06:59;37.42;;;34.63;;
22837;SDS011;11585;51.450;-0.240;2024-02-26T01:09:24;37.22;;;34.42;;
22837;SDS011;11585;51.450;-0.240;2024-02-26T01:11:50;36.78;;;34.00;;
22837;SDS011;11585;51.450;-0.240;2024-02-26T01:14:16;36.88;;;34.08;;
22837;SDS011;11585;51.450;-0.240;2024-02-26T01:19:11;37.47;;;34.58;;
22837;SDS011;11585;51.450;-0.240;2024-02-26T01:21:37;36.88;;;34.08;;
22837;SDS011;11585;51.450;-0.240;2024-02-26T01:24:02;38.80;;;35.80;;
22837;SDS011;11585;51.450;-0.240;2024-02-26T01:26:28;38.70;;;35.70;;
22837;SDS011;11585;51.450;-0.240;2024-02-26T01:28:54;38.40;;;35.40;;
22837;SDS011;11585;51.450;-0.240;2024-02-26T01:31:20;38.05;;;35.08;;
22837;SDS011;11585;51.450;-0.240;2024-02-26T01:33:46;37.88;;;34.97;;
22837;SDS011;11585;51.450;-0.240;2024-02-26T01:39:36;39.25;;;36.25;;
22837;SDS011;11585;51.450;-0.240;2024-02-26T01:42:02;40.17;;;37.08;;
22837;SDS011;11585;51.450;-0.240;2024-02-26T01:44:27;40.10;;;37.10;;
22837;SDS011;11585;51.450;-0.240;2024-02-26T01:46:53;40.47;;;37.38;;
22837;SDS011;11585;51.450;-0.240;2024-02-26T01:49:19;40.03;;;36.92;;
22837;SDS011;11585;51.450;-0.240;2024-02-26T01:51:45;40.22;;;37.13;;
22837;SDS011;11585;51.450;-0.240;2024-02-26T01:54:11;40.58;;;37.47;;
22837;SDS011;11585;51.450;-0.240;2024-02-26T01:56:38;40.85;;;37.70;;
22837;SDS011;11585;51.450;-0.240;2024-02-26T01:59:06;41.28;;;38.08;;
22837;SDS011;11585;51.450;-0.240;2024-02-26T02:01:33;40.55;;;37.45;;
22837;SDS011;11585;51.450;-0.240;2024-02-26T02:04:00;40.88;;;37.78;;
22837;SDS011;11585;51.450;-0.240;2024-02-26T02:09:13;40.65;;;37.55;;
22837;SDS011;11585;51.450;-0.240;2024-02-26T02:11:39;41.38;;;38.22;;
22837;SDS011;11585;51.450;-0.240;2024-02-26T02:14:05;41.15;;;38.05;;
22837;SDS011;11585;51.450;-0.240;2024-02-26T02:19:36;42.08;;;38.88;;
22837;SDS011;11585;51.450;-0.240;2024-02-26T02:22:01;40.70;;;37.60;;
22837;SDS011;11585;51.450;-0.240;2024-02-26T02:24:27;41.47;;;38.28;;
22837;SDS011;11585;51.450;-0.240;2024-02-26T02:26:53;41.03;;;37.92;;
22837;SDS011;11585;51.450;-0.240;2024-02-26T02:29:18;41.30;;;38.10;;
22837;SDS011;11585;51.450;-0.240;2024-02-26T02:31:44;42.33;;;39.13;;
22837;SDS011;11585;51.450;-0.240;2024-02-26T02:34:10;41.63;;;38.42;;
22837;SDS011;11585;51.450;-0.240;2024-02-26T02:39:57;43.58;;;40.17;;
22837;SDS011;11585;51.450;-0.240;2024-02-26T02:45:12;42.67;;;39.38;;
22837;SDS011;11585;51.450;-0.240;2024-02-26T02:47:38;42.47;;;39.17;;
22837;SDS011;11585;51.450;-0.240;2024-02-26T02:50:04;43.05;;;39.75;;
22837;SDS011;11585;51.450;-0.240;2024-02-26T02:52:30;42.85;;;39.55;;
22837;SDS011;11585;51.450;-0.240;2024-02-26T02:57:43;42.47;;;39.17;;
22837;SDS011;11585;51.450;-0.240;2024-02-26T03:00:10;43.50;;;40.10;;
22837;SDS011;11585;51.450;-0.240;2024-02-26T03:02:36;42.63;;;39.30;;
22837;SDS011;11585;51.450;-0.240;2024-02-26T03:05:05;42.15;;;38.85;;
22837;SDS011;11585;51.450;-0.240;2024-02-26T03:07:31;43.88;;;40.38;;
22837;SDS011;11585;51.450;-0.240;2024-02-26T03:09:56;44.13;;;40.63;;
22837;SDS011;11585;51.450;-0.240;2024-02-26T03:12:22;43.67;;;40.17;;
22837;SDS011;11585;51.450;-0.240;2024-02-26T03:14:48;44.60;;;41.10;;
22837;SDS011;11585;51.450;-0.240;2024-02-26T03:17:14;44.03;;;40.53;;
22837;SDS011;11585;51.450;-0.240;2024-02-26T03:19:40;44.88;;;41.38;;
22837;SDS011;11585;51.450;-0.240;2024-02-26T03:22:05;45.13;;;41.65;;
22837;SDS011;11585;51.450;-0.240;2024-02-26T03:24:31;45.95;;;42.35;;
22837;SDS011;11585;51.450;-0.240;2024-02-26T03:29:41;45.38;;;41.80;;
22837;SDS011;11585;51.450;-0.240;2024-02-26T03:32:07;45.72;;;42.13;;
22837;SDS011;11585;51.450;-0.240;2024-02-26T03:34:32;46.55;;;42.95;;
22837;SDS011;11585;51.450;-0.240;2024-02-26T03:37:01;45.65;;;42.05;;
22837;SDS011;11585;51.450;-0.240;2024-02-26T03:39:27;45.53;;;41.92;;
22837;SDS011;11585;51.450;-0.240;2024-02-26T03:41:52;46.50;;;42.80;;
22837;SDS011;11585;51.450;-0.240;2024-02-26T03:44:19;46.47;;;42.88;;
22837;SDS011;11585;51.450;-0.240;2024-02-26T03:46:45;46.95;;;43.25;;
22837;SDS011;11585;51.450;-0.240;2024-02-26T03:49:10;47.30;;;43.60;;
22837;SDS011;11585;51.450;-0.240;2024-02-26T03:51:36;47.60;;;43.88;;
22837;SDS011;11585;51.450;-0.240;2024-02-26T03:54:02;48.03;;;44.25;;
22837;SDS011;11585;51.450;-0.240;2024-02-26T03:56:29;46.53;;;42.83;;
22837;SDS011;11585;51.450;-0.240;2024-02-26T03:58:55;47.67;;;43.88;;
22837;SDS011;11585;51.450;-0.240;2024-02-26T04:01:20;47.10;;;43.40;;
22837;SDS011;11585;51.450;-0.240;2024-02-26T04:03:46;46.85;;;43.15;;
22837;SDS011;11585;51.450;-0.240;2024-02-26T04:06:12;49.08;;;45.17;;
22837;SDS011;11585;51.450;-0.240;2024-02-26T04:08:43;50.72;;;46.72;;
22837;SDS011;11585;51.450;-0.240;2024-02-26T04:11:08;50.40;;;46.40;;
22837;SDS011;11585;51.450;-0.240;2024-02-26T04:13:34;48.45;;;44.65;;
22837;SDS011;11585;51.450;-0.240;2024-02-26T04:16:00;48.13;;;44.33;;
22837;SDS011;11585;51.450;-0.240;2024-02-26T04:18:27;49.92;;;45.92;;
22837;SDS011;11585;51.450;-0.240;2024-02-26T04:20:53;50.03;;;46.03;;
22837;SDS011;11585;51.450;-0.240;2024-02-26T04:23:19;48.65;;;44.75;;
22837;SDS011;11585;51.450;-0.240;2024-02-26T04:25:47;47.70;;;43.90;;
22837;SDS011;11585;51.450;-0.240;2024-02-26T04:28:13;49.00;;;45.10;;
22837;SDS011;11585;51.450;-0.240;2024-02-26T04:30:38;48.20;;;44.35;;
22837;SDS011;11585;51.450;-0.240;2024-02-26T04:33:04;50.75;;;46.75;;
22837;SDS011;11585;51.450;-0.240;2024-02-26T04:35:31;50.03;;;46.05;;
22837;SDS011;11585;51.450;-0.240;2024-02-26T04:37:57;49.45;;;45.55;;
22837;SDS011;11585;51.450;-0.240;2024-02-26T04:40:23;49.60;;;45.60;;
22837;SDS011;11585;51.450;-0.240;2024-02-26T04:42:49;50.15;;;46.15;;
22837;SDS011;11585;51.450;-0.240;2024-02-26T04:48:00;52.22;;;48.03;;
22837;SDS011;11585;51.450;-0.240;2024-02-26T04:50:27;50.95;;;46.85;;
22837;SDS011;11585;51.450;-0.240;2024-02-26T04:52:52;51.03;;;47.03;;
22837;SDS011;11585;51.450;-0.240;2024-02-26T04:55:18;52.30;;;48.10;;
22837;SDS011;11585;51.450;-0.240;2024-02-26T04:57:44;51.28;;;47.17;;
22837;SDS011;11585;51.450;-0.240;2024-02-26T05:00:09;51.63;;;47.42;;
22837;SDS011;11585;51.450;-0.240;2024-02-26T05:02:36;51.95;;;47.75;;
22837;SDS011;11585;51.450;-0.240;2024-02-26T05:08:06;53.95;;;49.55;;
22837;SDS011;11585;51.450;-0.240;2024-02-26T05:10:34;50.25;;;46.15;;
22837;SDS011;11585;51.450;-0.240;2024-02-26T05:13:04;53.50;;;49.20;;
22837;SDS011;11585;51.450;-0.240;2024-02-26T05:18:36;55.35;;;51.05;;
22837;SDS011;11585;51.450;-0.240;2024-02-26T05:21:01;55.28;;;50.88;;
22837;SDS011;11585;51.450;-0.240;2024-02-26T05:23:28;54.33;;;50.03;;
22837;SDS011;11585;51.450;-0.240;2024-02-26T05:25:56;53.35;;;49.05;;
22837;SDS011;11585;51.450;-0.240;2024-02-26T05:28:22;54.15;;;49.75;;
22837;SDS011;11585;51.450;-0.240;2024-02-26T05:30:47;53.78;;;49.38;;
22837;SDS011;11585;51.450;-0.240;2024-02-26T05:33:13;52.85;;;48.55;;
22837;SDS011;11585;51.450;-0.240;2024-02-26T05:35:41;52.95;;;48.65;;
22837;SDS011;11585;51.450;-0.240;2024-02-26T05:38:07;51.88;;;47.67;;
22837;SDS011;11585;51.450;-0.240;2024-02-26T05:40:32;52.55;;;48.25;;
22837;SDS011;11585;51.450;-0.240;2024-02-26T05:42:58;53.60;;;49.20;;
22837;SDS011;11585;51.450;-0.240;2024-02-26T05:48:47;55.00;;;50.60;;
22837;SDS011;11585;51.450;-0.240;2024-02-26T05:51:13;55.03;;;50.63;;
22837;SDS011;11585;51.450;-0.240;2024-02-26T05:53:40;55.70;;;51.20;;
22837;SDS011;11585;51.450;-0.240;2024-02-26T05:58:58;56.67;;;52.08;;
22837;SDS011;11585;51.450;-0.240;2024-02-26T06:01:24;53.10;;;48.80;;
22837;SDS011;11585;51.450;-0.240;2024-02-26T06:03:50;51.88;;;47.67;;
22837;SDS011;11585;51.450;-0.240;2024-02-26T06:09:02;58.90;;;54.20;;
22837;SDS011;11585;51.450;-0.240;2024-02-26T06:11:30;54.65;;;50.15;;
22837;SDS011;11585;51.450;-0.240;2024-02-26T06:13:55;51.80;;;47.45;;
22837;SDS011;11585;51.450;-0.240;2024-02-26T06:16:22;55.78;;;51.28;;
22837;SDS011;11585;51.450;-0.240;2024-02-26T06:18:48;58.53;;;53.83;;
22837;SDS011;11585;51.450;-0.240;2024-02-26T06:21:13;59.83;;;54.92;;
22837;SDS011;11585;51.450;-0.240;2024-02-26T06:23:39;56.92;;;52.33;;
22837;SDS011;11585;51.450;-0.240;2024-02-26T06:26:11;57.88;;;53.17;;
22837;SDS011;11585;51.450;-0.240;2024-02-26T06:28:37;54.58;;;50.08;;
22837;SDS011;11585;51.450;-0.240;2024-02-26T06:31:05;57.60;;;52.93;;
22837;SDS011;11585;51.450;-0.240;2024-02-26T06:33:31;53.55;;;49.15;;
22837;SDS011;11585;51.450;-0.240;2024-02-26T06:35:57;52.35;;;48.05;;
22837;SDS011;11585;51.450;-0.240;2024-02-26T06:38:23;54.47;;;49.97;;
22837;SDS011;11585;51.450;-0.240;2024-02-26T06:40:49;56.28;;;51.67;;
22837;SDS011;11585;51.450;-0.240;2024-02-26T06:43:15;55.10;;;50.50;;
22837;SDS011;11585;51.450;-0.240;2024-02-26T06:45:41;55.15;;;50.55;;
22837;SDS011;11585;51.450;-0.240;2024-02-26T06:48:07;57.53;;;52.88;;
22837;SDS011;11585;51.450;-0.240;2024-02-26T06:50:32;55.88;;;51.17;;
22837;SDS011;11585;51.450;-0.240;2024-02-26T06:52:58;58.10;;;53.30;;
22837;SDS011;11585;51.450;-0.240;2024-02-26T06:58:10;56.03;;;51.22;;
22837;SDS011;11585;51.450;-0.240;2024-02-26T07:00:36;56.47;;;51.67;;
22837;SDS011;11585;51.450;-0.240;2024-02-26T07:03:01;57.97;;;53.28;;
22837;SDS011;11585;51.450;-0.240;2024-02-26T07:05:28;58.53;;;53.72;;
22837;SDS011;11585;51.450;-0.240;2024-02-26T07:07:54;60.40;;;55.50;;
22837;SDS011;11585;51.450;-0.240;2024-02-26T07:10:25;60.25;;;55.35;;
22837;SDS011;11585;51.450;-0.240;2024-02-26T07:12:51;58.80;;;54.00;;
22837;SDS011;11585;51.450;-0.240;2024-02-26T07:15:19;59.28;;;54.38;;
22837;SDS011;11585;51.450;-0.240;2024-02-26T07:17:44;62.70;;;57.70;;
22837;SDS011;11585;51.450;-0.240;2024-02-26T07:20:12;64.78;;;59.67;;
22837;SDS011;11585;51.450;-0.240;2024-02-26T07:22:39;64.07;;;58.97;;
22837;SDS011;11585;51.450;-0.240;2024-02-26T07:28:29;63.47;;;58.38;;
22837;SDS011;11585;51.450;-0.240;2024-02-26T07:30:55;58.42;;;53.53;;
22837;SDS011;11585;51.450;-0.240;2024-02-26T07:33:21;62.10;;;57.00;;
22837;SDS011;11585;51.450;-0.240;2024-02-26T07:35:48;62.00;;;57.10;;
22837;SDS011;11585;51.450;-0.240;2024-02-26T07:38:14;63.63;;;58.53;;
22837;SDS011;11585;51.450;-0.240;2024-02-26T07:40:40;58.10;;;53.20;;
22837;SDS011;11585;51.450;-0.240;2024-02-26T07:43:05;58.95;;;54.08;;
22837;SDS011;11585;51.450;-0.240;2024-02-26T07:45:33;64.32;;;59.22;;
22837;SDS011;11585;51.450;-0.240;2024-02-26T07:48:01;61.13;;;56.25;;
22837;SDS011;11585;51.450;-0.240;2024-02-26T07:50:27;63.78;;;58.72;;
22837;SDS011;11585;51.450;-0.240;2024-02-26T07:52:52;62.10;;;57.13;;
22837;SDS011;11585;51.450;-0.240;2024-02-26T07:55:19;62.95;;;57.85;;
22837;SDS011;11585;51.450;-0.240;2024-02-26T07:57:44;60.10;;;55.03;;
22837;SDS011;11585;51.450;-0.240;2024-02-26T08:00:10;56.55;;;51.80;;
22837;SDS011;11585;51.450;-0.240;2024-02-26T08:02:36;59.47;;;54.58;;
22837;SDS011;11585;51.450;-0.240;2024-02-26T08:05:03;58.08;;;53.47;;
22837;SDS011;11585;51.450;-0.240;2024-02-26T08:07:29;54.72;;;50.35;;
22837;SDS011;11585;51.450;-0.240;2024-02-26T08:09:55;55.55;;;51.05;;
22837;SDS011;11585;51.450;-0.240;2024-02-26T08:12:21;54.13;;;49.72;;
22837;SDS011;11585;51.450;-0.240;2024-02-26T08:14:48;59.65;;;55.05;;
22837;SDS011;11585;51.450;-0.240;2024-02-26T08:17:13;58.30;;;53.80;;
22837;SDS011;11585;51.450;-0.240;2024-02-26T08:19:39;57.67;;;53.10;;
22837;SDS011;11585;51.450;-0.240;2024-02-26T08:22:04;59.33;;;54.65;;
22837;SDS011;11585;51.450;-0.240;2024-02-26T08:24:30;62.38;;;57.58;;
22837;SDS011;11585;51.450;-0.240;2024-02-26T08:26:58;59.20;;;54.60;;
22837;SDS011;11585;51.450;-0.240;2024-02-26T08:29:24;57.50;;;53.05;;
22837;SDS011;11585;51.450;-0.240;2024-02-26T08:31:49;59.50;;;54.90;;
22837;SDS011;11585;51.450;-0.240;2024-02-26T08:34:15;60.53;;;55.83;;
22837;SDS011;11585;51.450;-0.240;2024-02-26T08:36:41;56.67;;;52.20;;
22837;SDS011;11585;51.450;-0.240;2024-02-26T08:39:08;54.90;;;50.50;;
22837;SDS011;11585;51.450;-0.240;2024-02-26T08:41:34;55.83;;;51.35;;
22837;SDS011;11585;51.450;-0.240;2024-02-26T08:43:59;55.88;;;51.55;;
22837;SDS011;11585;51.450;-0.240;2024-02-26T08:46:25;54.75;;;50.35;;
22837;SDS011;11585;51.450;-0.240;2024-02-26T08:48:51;52.75;;;48.55;;
22837;SDS011;11585;51.450;-0.240;2024-02-26T08:51:17;52.67;;;48.38;;
22837;SDS011;11585;51.450;-0.240;2024-02-26T08:53:42;53.13;;;48.83;;
22837;SDS011;11585;51.450;-0.240;2024-02-26T08:56:09;53.63;;;49.42;;
22837;SDS011;11585;51.450;-0.240;2024-02-26T08:58:42;55.13;;;50.72;;
22837;SDS011;11585;51.450;-0.240;2024-02-26T09:01:13;57.67;;;53.17;;
22837;SDS011;11585;51.450;-0.240;2024-02-26T09:03:39;56.65;;;52.20;;
22837;SDS011;11585;51.450;-0.240;2024-02-26T09:06:07;57.85;;;53.47;;
22837;SDS011;11585;51.450;-0.240;2024-02-26T09:08:33;55.78;;;51.47;;
22837;SDS011;11585;51.450;-0.240;2024-02-26T09:11:00;54.15;;;49.95;;
22837;SDS011;11585;51.450;-0.240;2024-02-26T09:13:26;58.13;;;53.72;;
22837;SDS011;11585;51.450;-0.240;2024-02-26T09:18:44;53.63;;;49.53;;
22837;SDS011;11585;51.450;-0.240;2024-02-26T09:21:10;53.67;;;49.47;;
22837;SDS011;11585;51.450;-0.240;2024-02-26T09:23:36;57.35;;;52.95;;
22837;SDS011;11585;51.450;-0.240;2024-02-26T09:28:46;59.05;;;54.55;;
22837;SDS011;11585;51.450;-0.240;2024-02-26T09:31:11;57.33;;;52.92;;
22837;SDS011;11585;51.450;-0.240;2024-02-26T09:33:37;55.33;;;51.03;;
22837;SDS011;11585;51.450;-0.240;2024-02-26T09:39:25;59.63;;;55.13;;
22837;SDS011;11585;51.450;-0.240;2024-02-26T09:41:51;56.90;;;52.60;;
22837;SDS011;11585;51.450;-0.240;2024-02-26T09:44:20;56.38;;;52.08;;
22837;SDS011;11585;51.450;-0.240;2024-02-26T09:49:18;58.72;;;54.33;;
22837;SDS011;11585;51.450;-0.240;2024-02-26T09:51:47;56.88;;;52.58;;
22837;SDS011;11585;51.450;-0.240;2024-02-26T09:54:14;58.90;;;54.50;;
22837;SDS011;11585;51.450;-0.240;2024-02-26T09:59:32;55.60;;;51.25;;
22837;SDS011;11585;51.450;-0.240;2024-02-26T10:02:03;55.00;;;50.80;;
22837;SDS011;11585;51.450;-0.240;2024-02-26T10:04:29;57.13;;;52.72;;
22837;SDS011;11585;51.450;-0.240;2024-02-26T10:10:18;53.55;;;49.45;;
22837;SDS011;11585;51.450;-0.240;2024-02-26T10:12:44;57.10;;;52.80;;
22837;SDS011;11585;51.450;-0.240;2024-02-26T10:18:48;56.70;;;52.30;;
22837;SDS011;11585;51.450;-0.240;2024-02-26T10:21:17;57.75;;;53.35;;
22837;SDS011;11585;51.450;-0.240;2024-02-26T10:23:44;56.15;;;51.75;;
22837;SDS011;11585;51.450;-0.240;2024-02-26T10:28:59;56.95;;;52.65;;
22837;SDS011;11585;51.450;-0.240;2024-02-26T10:31:26;56.25;;;51.95;;
22837;SDS011;11585;51.450;-0.240;2024-02-26T10:33:54;56.60;;;52.30;;
22837;SDS011;11585;51.450;-0.240;2024-02-26T10:36:21;58.85;;;54.42;;
22837;SDS011;11585;51.450;-0.240;2024-02-26T10:38:46;58.17;;;53.67;;
22837;SDS011;11585;51.450;-0.240;2024-02-26T10:41:13;55.92;;;51.53;;
22837;SDS011;11585;51.450;-0.240;2024-02-26T10:43:42;57.58;;;53.08;;
22837;SDS011;11585;51.450;-0.240;2024-02-26T10:46:09;56.28;;;51.95;;
22837;SDS011;11585;51.450;-0.240;2024-02-26T10:48:35;56.38;;;51.97;;
22837;SDS011;11585;51.450;-0.240;2024-02-26T10:51:01;54.85;;;50.55;;
22837;SDS011;11585;51.450;-0.240;2024-02-26T10:53:28;57.78;;;53.38;;
22837;SDS011;11585;51.450;-0.240;2024-02-26T10:56:05;51.55;;;47.35;;
22837;SDS011;11585;51.450;-0.240;2024-02-26T10:58:32;55.55;;;51.17;;
22837;SDS011;11585;51.450;-0.240;2024-02-26T11:00:59;52.28;;;48.17;;
22837;SDS011;11585;51.450;-0.240;2024-02-26T11:03:25;55.78;;;51.40;;
22837;SDS011;11585;51.450;-0.240;2024-02-26T11:08:52;54.28;;;50.03;;
22837;SDS011;11585;51.450;-0.240;2024-02-26T11:11:18;54.65;;;50.45;;
22837;SDS011;11585;51.450;-0.240;2024-02-26T11:13:45;54.50;;;50.25;;
22837;SDS011;11585;51.450;-0.240;2024-02-26T11:19:02;56.65;;;52.33;;
22837;SDS011;11585;51.450;-0.240;2024-02-26T11:21:28;57.15;;;52.75;;
22837;SDS011;11585;51.450;-0.240;2024-02-26T11:24:11;55.15;;;50.85;;
22837;SDS011;11585;51.450;-0.240;2024-02-26T11:29:27;57.03;;;52.63;;
22837;SDS011;11585;51.450;-0.240;2024-02-26T11:32:06;58.95;;;54.45;;
22837;SDS011;11585;51.450;-0.240;2024-02-26T11:34:32;59.00;;;54.47;;
22837;SDS011;11585;51.450;-0.240;2024-02-26T11:39:54;56.35;;;51.95;;
22837;SDS011;11585;51.450;-0.240;2024-02-26T11:44:55;58.95;;;54.40;;
22837;SDS011;11585;51.450;-0.240;2024-02-26T11:47:25;57.72;;;53.22;;
22837;SDS011;11585;51.450;-0.240;2024-02-26T11:49:52;59.33;;;54.83;;
22837;SDS011;11585;51.450;-0.240;2024-02-26T11:52:17;56.60;;;52.20;;
22837;SDS011;11585;51.450;-0.240;2024-02-26T11:57:50;58.15;;;53.75;;
22837;SDS011;11585;51.450;-0.240;2024-02-26T12:02:52;60.22;;;55.72;;
22837;SDS011;11585;51.450;-0.240;2024-02-26T12:05:32;62.58;;;57.90;;
22837;SDS011;11585;51.450;-0.240;2024-02-26T12:10:33;57.83;;;53.42;;
22837;SDS011;11585;51.450;-0.240;2024-02-26T12:13:16;59.50;;;55.00;;
22837;SDS011;11585;51.450;-0.240;2024-02-26T12:22:26;59.13;;;54.53;;
22837;SDS011;11585;51.450;-0.240;2024-02-26T12:25:00;57.67;;;53.17;;
22837;SDS011;11585;51.450;-0.240;2024-02-26T12:27:28;57.72;;;53.33;;
22837;SDS011;11585;51.450;-0.240;2024-02-26T12:29:53;59.42;;;54.92;;
22837;SDS011;11585;51.450;-0.240;2024-02-26T12:32:19;59.22;;;54.63;;
22837;SDS011;11585;51.450;-0.240;2024-02-26T12:38:14;59.03;;;54.42;;
22837;SDS011;11585;51.450;-0.240;2024-02-26T12:40:40;57.50;;;53.00;;
22837;SDS011;11585;51.450;-0.240;2024-02-26T12:43:06;56.08;;;51.60;;
22837;SDS011;11585;51.450;-0.240;2024-02-26T12:48:27;57.95;;;53.45;;
22837;SDS011;11585;51.450;-0.240;2024-02-26T12:50:54;59.03;;;54.45;;
22837;SDS011;11585;51.450;-0.240;2024-02-26T12:53:21;58.55;;;54.05;;
22837;SDS011;11585;51.450;-0.240;2024-02-26T12:55:47;58.67;;;54.17;;
22837;SDS011;11585;51.450;-0.240;2024-02-26T12:58:13;59.45;;;54.88;;
22837;SDS011;11585;51.450;-0.240;2024-02-26T13:00:40;64.05;;;59.15;;
22837;SDS011;11585;51.450;-0.240;2024-02-26T13:03:06;61.70;;;57.00;;
22837;SDS011;11585;51.450;-0.240;2024-02-26T13:08:36;61.13;;;56.33;;
22837;SDS011;11585;51.450;-0.240;2024-02-26T13:11:02;62.05;;;57.22;;
22837;SDS011;11585;51.450;-0.240;2024-02-26T13:13:28;60.53;;;55.63;;
22837;SDS011;11585;51.450;-0.240;2024-02-26T13:19:16;57.80;;;53.15;;
22837;SDS011;11585;51.450;-0.240;2024-02-26T13:21:41;61.13;;;56.33;;
22837;SDS011;11585;51.450;-0.240;2024-02-26T13:24:07;60.10;;;55.40;;
22837;SDS011;11585;51.450;-0.240;2024-02-26T13:29:23;61.95;;;57.08;;
22837;SDS011;11585;51.450;-0.240;2024-02-26T13:31:54;63.28;;;58.33;;
22837;SDS011;11585;51.450;-0.240;2024-02-26T13:34:27;62.35;;;57.45;;
22837;SDS011;11585;51.450;-0.240;2024-02-26T13:40:17;61.42;;;56.63;;
22837;SDS011;11585;51.450;-0.240;2024-02-26T13:42:44;58.85;;;54.25;;
22837;SDS011;11585;51.450;-0.240;2024-02-26T13:45:11;60.78;;;56.08;;
22837;SDS011;11585;51.450;-0.240;2024-02-26T13:47:36;59.45;;;54.80;;
22837;SDS011;11585;51.450;-0.240;2024-02-26T13:50:02;60.35;;;55.65;;
22837;SDS011;11585;51.450;-0.240;2024-02-26T13:52:28;59.22;;;54.53;;
22837;SDS011;11585;51.450;-0.240;2024-02-26T13:58:16;61.35;;;56.50;;
22837;SDS011;11585;51.450;-0.240;2024-02-26T14:00:45;62.05;;;57.05;;
22837;SDS011;11585;51.450;-0.240;2024-02-26T14:03:10;61.58;;;56.67;;
22837;SDS011;11585;51.450;-0.240;2024-02-26T14:12:06;62.30;;;57.22;;
22837;SDS011;11585;51.450;-0.240;2024-02-26T14:14:32;60.30;;;55.40;;
22837;SDS011;11585;51.450;-0.240;2024-02-26T14:17:02;61.03;;;56.03;;
22837;SDS011;11585;51.450;-0.240;2024-02-26T14:19:28;58.22;;;53.38;;
22837;SDS011;11585;51.450;-0.240;2024-02-26T14:21:54;61.28;;;56.28;;
22837;SDS011;11585;51.450;-0.240;2024-02-26T14:24:19;60.53;;;55.63;;
22837;SDS011;11585;51.450;-0.240;2024-02-26T14:29:49;60.95;;;55.95;;
22837;SDS011;11585;51.450;-0.240;2024-02-26T14:32:14;59.50;;;54.60;;
22837;SDS011;11585;51.450;-0.240;2024-02-26T14:34:40;60.30;;;55.30;;
22837;SDS011;11585;51.450;-0.240;2024-02-26T14:37:06;60.30;;;55.40;;
22837;SDS011;11585;51.450;-0.240;2024-02-26T14:39:32;59.92;;;55.03;;
22837;SDS011;11585;51.450;-0.240;2024-02-26T14:41:59;58.55;;;53.85;;
22837;SDS011;11585;51.450;-0.240;2024-02-26T14:44:25;60.47;;;55.63;;
22837;SDS011;11585;51.450;-0.240;2024-02-26T14:50:13;63.60;;;58.60;;
22837;SDS011;11585;51.450;-0.240;2024-02-26T14:52:39;63.45;;;58.40;;
22837;SDS011;11585;51.450;-0.240;2024-02-26T14:57:51;60.65;;;55.75;;
22837;SDS011;11585;51.450;-0.240;2024-02-26T15:00:17;61.88;;;56.88;;
22837;SDS011;11585;51.450;-0.240;2024-02-26T15:02:43;61.50;;;56.60;;
22837;SDS011;11585;51.450;-0.240;2024-02-26T15:05:08;61.70;;;56.70;;
22837;SDS011;11585;51.450;-0.240;2024-02-26T15:07:36;62.17;;;57.10;;
22837;SDS011;11585;51.450;-0.240;2024-02-26T15:10:07;65.25;;;60.00;;
22837;SDS011;11585;51.450;-0.240;2024-02-26T15:12:33;68.88;;;63.47;;
22837;SDS011;11585;51.450;-0.240;2024-02-26T15:14:59;64.63;;;59.50;;
22837;SDS011;11585;51.450;-0.240;2024-02-26T15:17:26;65.13;;;59.92;;
22837;SDS011;11585;51.450;-0.240;2024-02-26T15:19:53;64.32;;;59.22;;
22837;SDS011;11585;51.450;-0.240;2024-02-26T15:22:19;60.40;;;55.50;;
22837;SDS011;11585;51.450;-0.240;2024-02-26T15:24:44;64.97;;;59.78;;
22837;SDS011;11585;51.450;-0.240;2024-02-26T15:27:12;66.65;;;61.45;;
22837;SDS011;11585;51.450;-0.240;2024-02-26T15:29:37;64.18;;;59.10;;
22837;SDS011;11585;51.450;-0.240;2024-02-26T15:32:04;65.18;;;60.08;;
22837;SDS011;11585;51.450;-0.240;2024-02-26T15:34:30;66.00;;;60.85;;
22837;SDS011;11585;51.450;-0.240;2024-02-26T15:39:59;66.88;;;61.67;;
22837;SDS011;11585;51.450;-0.240;2024-02-26T15:42:25;65.07;;;59.97;;
22837;SDS011;11585;51.450;-0.240;2024-02-26T15:48:13;63.75;;;58.75;;
22837;SDS011;11585;51.450;-0.240;2024-02-26T15:50:39;62.58;;;57.67;;
22837;SDS011;11585;51.450;-0.240;2024-02-26T15:53:07;63.40;;;58.40;;
22837;SDS011;11585;51.450;-0.240;2024-02-26T15:58:18;66.45;;;61.25;;
22837;SDS011;11585;51.450;-0.240;2024-02-26T16:00:44;65.15;;;59.95;;
22837;SDS011;11585;51.450;-0.240;2024-02-26T16:03:09;64.25;;;59.15;;
22837;SDS011;11585;51.450;-0.240;2024-02-26T16:05:39;64.80;;;59.72;;
22837;SDS011;11585;51.450;-0.240;2024-02-26T16:08:06;63.97;;;58.88;;
22837;SDS011;11585;51.450;-0.240;2024-02-26T16:10:45;63.63;;;58.53;;
22837;SDS011;11585;51.450;-0.240;2024-02-26T16:13:11;61.97;;;57.03;;
22837;SDS011;11585;51.450;-0.240;2024-02-26T16:15:38;64.80;;;59.70;;
22837;SDS011;11585;51.450;-0.240;2024-02-26T16:18:07;61.45;;;56.45;;
22837;SDS011;11585;51.450;-0.240;2024-02-26T16:20:33;60.75;;;55.95;;
22837;SDS011;11585;51.450;-0.240;2024-02-26T16:22:59;60.20;;;55.30;;
22837;SDS011;11585;51.450;-0.240;2024-02-26T16:28:51;59.25;;;54.35;;
22837;SDS011;11585;51.450;-0.240;2024-02-26T16:31:17;59.95;;;54.95;;
22837;SDS011;11585;51.450;-0.240;2024-02-26T16:33:43;62.78;;;57.67;;
22837;SDS011;11585;51.450;-0.240;2024-02-26T16:36:09;60.97;;;55.92;;
22837;SDS011;11585;51.450;-0.240;2024-02-26T16:38:37;59.95;;;55.05;;
22837;SDS011;11585;51.450;-0.240;2024-02-26T16:41:04;60.15;;;55.15;;